09 Apr 2020 05:06 UTC 2020100+05:06 UTC

Overview Datums Bench Marks Data Query Site Visit Daily QC Messages Attributes

170: National Park Service - Baffin Bay

27° 17' 49" N   97° 24' 17" W
NPSBB
United States National Park Service United States National Park Service

Station Information

National Park Service - Baffin Bay
National Park Service - Baffin Bay
more pictures
 
Station Name:National Park Service - Baffin Bay
DNR ID:170
Location:27° 17' 49" N, 97° 24' 17" W

Water Level Forecasts

Latest Observations

Series Metric English Marine Observed at
Water Temperature 26.3 °C 79.3 °F 79.3 °F Apr 08 23:12 CDT
00h48m ago
Salinity 43.700 psu 43.700 psu 43.700 psu Apr 08 23:12 CDT
00h48m ago
Turbidity 16 ntu 16 ntu 16 ntu Apr 08 23:12 CDT
00h48m ago
Dissolved Oxygen 5.60 mg/L 0.000350 lb/ft3 0.000350 lb/ft3 Apr 08 23:12 CDT
00h48m ago

Maps

National Park Service - Baffin Bay
All Stations in Area
Entire Network
 

Recent Observations

Date/Time Water
Temp (°F)
Sal (psu) pH (pH) Turb (ntu) DO (lb/ft3)
Apr 08 23:00 CDT 79.3 43.700 19 0.000357
Apr 08 22:00 CDT 79.7 43.700 19 0.000413
Apr 08 21:00 CDT 79.9 43.700 18 0.000469
Apr 08 20:00 CDT 80.4 43.700 16 0.000498
Apr 08 19:00 CDT 80.4 43.700 17 0.000536
Apr 08 18:00 CDT 81.1 43.700 17 0.000583
Apr 08 17:00 CDT 80.6 43.600 15 0.000569
Apr 08 16:00 CDT 79.9 43.600 17 0.000546
Apr 08 15:00 CDT 79.2 43.600 16 0.000519
Apr 08 14:00 CDT 77.4 43.600 20 0.000495
Apr 08 13:00 CDT 76.5 43.600 19 0.000486
Apr 08 12:00 CDT 75.9 43.600 15 0.000459
Apr 08 11:00 CDT 75.4 43.600 14 0.000441
Apr 08 10:00 CDT 74.8 43.600 16 0.000394
Apr 08 09:00 CDT 74.7 43.600 15 0.000365
Apr 08 08:00 CDT 74.7 43.700 18 0.000351
Apr 08 07:00 CDT 74.7 43.700 20 0.000372
Apr 08 06:00 CDT 74.7 43.700 19 0.000390
Apr 08 05:00 CDT 74.8 43.600 23 0.000390
Apr 08 04:00 CDT 74.8 43.600 20 0.000410
Apr 08 03:00 CDT 75.2 43.500 28 0.000379
Apr 08 02:00 CDT 75.6 43.400 19 0.000380
Apr 08 01:00 CDT 75.7 43.400 15 0.000388
Apr 08 00:00 CDT 75.9 43.400 16 0.000439

Historical Data Availability